Time;durP1;ratioP1;P1;durP2;ratioP2;P2;SDS_P1;SDS_P2;PMS_P1;PMS_P2;Temp;Humidity;BMP_temperature;BMP_pressure;BME280_temperature;BME280_humidity;BME280_pressure;Samples;Min_cycle;Max_cycle;Signal;HPM_P1;HPM_P2
2024/02/16 00:00:05;;;;;;;26.27;11.60;;;;;;;;;;4910630;29;20036;-68
2024/02/16 00:02:32;;;;;;;24.20;11.02;;;;;;;;;;4910045;28;20056;-67
2024/02/16 00:04:58;;;;;;;20.88;11.18;;;;;;;;;;4910761;28;20090;-67
2024/02/16 00:07:25;;;;;;;21.75;10.85;;;;;;;;;;4910574;29;20028;-68
2024/02/16 00:09:51;;;;;;;20.10;11.25;;;;;;;;;;4910423;28;20452;-68
2024/02/16 00:12:17;;;;;;;15.60;9.95;;;;;;;;;;4910223;28;20175;-68
2024/02/16 00:14:45;;;;;;;16.25;10.68;;;;;;;;;;4910520;29;20026;-69
2024/02/16 00:17:12;;;;;;;18.17;10.23;;;;;;;;;;4910246;28;20355;-68
2024/02/16 00:19:38;;;;;;;16.98;10.25;;;;;;;;;;4910607;29;20035;-69
2024/02/16 00:22:04;;;;;;;13.15;9.63;;;;;;;;;;4910301;28;20024;-69
2024/02/16 00:24:31;;;;;;;16.70;10.43;;;;;;;;;;4910157;28;20051;-69
2024/02/16 00:26:57;;;;;;;17.33;9.80;;;;;;;;;;4910508;29;20413;-70
2024/02/16 00:29:26;;;;;;;17.77;8.80;;;;;;;;;;4910206;28;20067;-68
2024/02/16 00:31:52;;;;;;;13.32;9.25;;;;;;;;;;4913422;28;20024;-68
2024/02/16 00:34:19;;;;;;;13.73;8.68;;;;;;;;;;4915399;28;20111;-68
2024/02/16 00:36:45;;;;;;;15.10;9.13;;;;;;;;;;4913791;29;20032;-69
2024/02/16 00:39:11;;;;;;;20.25;9.07;;;;;;;;;;4913435;29;20106;-68
2024/02/16 00:41:37;;;;;;;12.80;8.13;;;;;;;;;;4912992;29;20071;-69
2024/02/16 00:44:03;;;;;;;14.77;8.77;;;;;;;;;;4913597;28;20429;-69
2024/02/16 00:46:29;;;;;;;12.48;8.82;;;;;;;;;;4926875;28;20028;-69
2024/02/16 00:48:55;;;;;;;18.92;8.35;;;;;;;;;;4922424;28;20115;-70
2024/02/16 00:51:21;;;;;;;13.52;7.97;;;;;;;;;;4922210;28;20035;-69
2024/02/16 00:53:47;;;;;;;14.07;8.45;;;;;;;;;;4913519;29;20591;-71
2024/02/16 00:56:13;;;;;;;13.52;7.57;;;;;;;;;;4913233;28;20111;-67
2024/02/16 00:58:45;;;;;;;12.68;6.80;;;;;;;;;;4911998;28;20028;-67
2024/02/16 01:01:12;;;;;;;12.10;7.47;;;;;;;;;;4913309;29;20055;-67
2024/02/16 01:03:41;;;;;;;13.35;7.40;;;;;;;;;;4922569;28;20047;-68
2024/02/16 01:06:08;;;;;;;9.48;6.72;;;;;;;;;;4913148;28;20249;-68
2024/02/16 01:08:34;;;;;;;12.25;6.85;;;;;;;;;;4913185;29;20024;-67
2024/02/16 01:11:00;;;;;;;11.05;7.32;;;;;;;;;;4913059;29;20369;-68
2024/02/16 01:13:26;;;;;;;12.48;6.80;;;;;;;;;;4912831;28;20036;-65
2024/02/16 01:15:52;;;;;;;9.93;5.88;;;;;;;;;;4925427;28;20026;-62
2024/02/16 01:18:18;;;;;;;12.35;7.85;;;;;;;;;;4913712;28;20394;-66
2024/02/16 01:20:44;;;;;;;14.77;8.65;;;;;;;;;;4912743;28;20024;-65
2024/02/16 01:23:10;;;;;;;13.80;8.32;;;;;;;;;;4919740;28;20134;-65
2024/02/16 01:25:36;;;;;;;12.25;8.38;;;;;;;;;;4913292;28;20020;-65
2024/02/16 01:28:03;;;;;;;11.52;8.43;;;;;;;;;;4912820;28;20379;-66
2024/02/16 01:30:28;;;;;;;11.00;7.68;;;;;;;;;;4912541;28;20020;-66
2024/02/16 01:32:55;;;;;;;19.70;8.05;;;;;;;;;;4918983;28;20032;-65
2024/02/16 01:35:21;;;;;;;13.50;8.85;;;;;;;;;;4909483;28;20032;-66
2024/02/16 01:37:47;;;;;;;12.25;8.00;;;;;;;;;;4912678;29;20472;-67
2024/02/16 01:40:17;;;;;;;13.65;8.35;;;;;;;;;;4912421;29;20035;-64
2024/02/16 01:42:47;;;;;;;13.57;8.57;;;;;;;;;;4911468;28;20510;-66
2024/02/16 01:45:13;;;;;;;14.03;7.17;;;;;;;;;;4912661;29;20028;-65
2024/02/16 01:47:42;;;;;;;15.35;7.93;;;;;;;;;;4912740;28;20016;-67
2024/02/16 01:50:09;;;;;;;14.75;7.38;;;;;;;;;;4912563;29;20027;-67
2024/02/16 01:52:36;;;;;;;10.88;6.70;;;;;;;;;;4912291;28;20395;-67
2024/02/16 01:55:03;;;;;;;10.23;6.90;;;;;;;;;;4912372;28;20027;-67
2024/02/16 01:57:30;;;;;;;10.00;6.18;;;;;;;;;;4912325;29;20052;-67
2024/02/16 01:59:56;;;;;;;16.08;6.15;;;;;;;;;;4912458;28;20424;-67
2024/02/16 02:02:22;;;;;;;9.45;6.35;;;;;;;;;;4911906;29;20024;-66
2024/02/16 02:04:48;;;;;;;9.15;5.88;;;;;;;;;;4912298;29;20028;-66
2024/02/16 02:07:14;;;;;;;8.63;5.97;;;;;;;;;;4912170;28;20373;-65
2024/02/16 02:09:40;;;;;;;7.00;4.97;;;;;;;;;;4912468;28;20035;-65
2024/02/16 02:12:07;;;;;;;11.38;5.97;;;;;;;;;;4911920;28;20020;-67
2024/02/16 02:14:33;;;;;;;9.82;5.43;;;;;;;;;;4912028;29;20068;-66
2024/02/16 02:16:59;;;;;;;11.38;5.65;;;;;;;;;;4912271;29;20104;-66
2024/02/16 02:19:25;;;;;;;9.60;5.55;;;;;;;;;;4911899;29;20064;-66
2024/02/16 02:21:51;;;;;;;8.73;5.20;;;;;;;;;;4911731;28;20464;-67
2024/02/16 02:24:17;;;;;;;8.55;4.65;;;;;;;;;;4911670;28;20044;-65
2024/02/16 02:26:43;;;;;;;7.55;4.55;;;;;;;;;;4911799;28;20032;-65
2024/02/16 02:29:09;;;;;;;11.50;4.93;;;;;;;;;;4911819;29;20119;-67
2024/02/16 02:31:35;;;;;;;7.88;4.88;;;;;;;;;;4911458;28;20024;-66
2024/02/16 02:34:01;;;;;;;6.45;4.38;;;;;;;;;;4911687;29;20493;-66
2024/02/16 02:36:27;;;;;;;7.38;4.57;;;;;;;;;;4911495;28;20024;-66
2024/02/16 02:38:53;;;;;;;7.18;4.13;;;;;;;;;;4911679;28;20829;-66
2024/02/16 02:41:20;;;;;;;7.63;4.13;;;;;;;;;;4911121;28;20039;-65
2024/02/16 02:43:46;;;;;;;5.82;4.10;;;;;;;;;;4911541;28;20395;-65
2024/02/16 02:46:16;;;;;;;7.50;4.22;;;;;;;;;;4911420;28;20032;-66
2024/02/16 02:48:43;;;;;;;8.07;4.80;;;;;;;;;;4904069;29;20028;-67
2024/02/16 02:51:09;;;;;;;6.25;4.30;;;;;;;;;;4910856;28;20028;-66
2024/02/16 02:53:35;;;;;;;4.60;3.63;;;;;;;;;;4911087;29;20021;-67
2024/02/16 02:56:01;;;;;;;6.88;4.00;;;;;;;;;;4911503;28;20044;-68
2024/02/16 02:58:28;;;;;;;6.40;3.88;;;;;;;;;;4911001;28;20051;-67
2024/02/16 03:00:54;;;;;;;5.10;3.33;;;;;;;;;;4911057;29;20032;-68
2024/02/16 03:03:21;;;;;;;8.48;3.42;;;;;;;;;;4911024;29;20038;-67
2024/02/16 03:05:47;;;;;;;5.03;3.53;;;;;;;;;;4911076;28;20028;-66
2024/02/16 03:08:13;;;;;;;6.90;3.45;;;;;;;;;;4911031;28;20494;-66
2024/02/16 03:10:39;;;;;;;5.10;3.38;;;;;;;;;;4911003;29;20055;-67
2024/02/16 03:13:06;;;;;;;4.70;2.80;;;;;;;;;;4911095;28;20509;-67
2024/02/16 03:15:35;;;;;;;8.07;3.60;;;;;;;;;;4911005;29;21562;-67
2024/02/16 03:18:01;;;;;;;5.07;2.97;;;;;;;;;;4911234;28;20115;-66
2024/02/16 03:20:27;;;;;;;4.10;3.00;;;;;;;;;;4910581;28;20028;-67
2024/02/16 03:22:53;;;;;;;8.00;3.97;;;;;;;;;;4910988;28;20155;-67
2024/02/16 03:25:19;;;;;;;5.50;3.17;;;;;;;;;;4910852;28;20060;-68
2024/02/16 03:27:46;;;;;;;6.53;3.33;;;;;;;;;;4911029;28;20042;-68
2024/02/16 03:30:12;;;;;;;3.67;2.63;;;;;;;;;;4910934;28;20032;-66
2024/02/16 03:32:38;;;;;;;5.47;2.83;;;;;;;;;;4902930;29;20102;-67
2024/02/16 03:35:04;;;;;;;5.22;2.70;;;;;;;;;;4910808;28;20124;-67
2024/02/16 03:37:30;;;;;;;6.45;2.83;;;;;;;;;;4931069;28;20022;-68
2024/02/16 03:39:56;;;;;;;5.85;2.83;;;;;;;;;;4910633;29;20028;-67
2024/02/16 03:42:22;;;;;;;6.60;2.90;;;;;;;;;;4910158;29;20036;-67
2024/02/16 03:44:48;;;;;;;3.05;2.35;;;;;;;;;;4910670;28;20028;-67
2024/02/16 03:47:14;;;;;;;4.68;2.22;;;;;;;;;;4907937;28;20032;-67
2024/02/16 03:49:40;;;;;;;6.05;2.67;;;;;;;;;;4909273;28;20361;-66
2024/02/16 03:52:06;;;;;;;4.90;2.28;;;;;;;;;;4910380;28;20074;-69
2024/02/16 03:54:32;;;;;;;2.63;2.20;;;;;;;;;;4910582;29;20024;-68
2024/02/16 03:56:58;;;;;;;3.65;2.45;;;;;;;;;;4909169;28;20044;-67
2024/02/16 03:59:24;;;;;;;6.70;3.13;;;;;;;;;;4910277;28;20032;-67
2024/02/16 04:01:51;;;;;;;3.30;2.47;;;;;;;;;;4910166;29;20044;-67
2024/02/16 04:04:18;;;;;;;2.45;1.95;;;;;;;;;;4910378;28;20094;-68
2024/02/16 04:06:44;;;;;;;2.20;1.88;;;;;;;;;;4913584;29;20028;-66
2024/02/16 04:09:10;;;;;;;3.60;2.30;;;;;;;;;;4913783;28;20031;-67
2024/02/16 04:11:36;;;;;;;4.60;2.22;;;;;;;;;;4913402;28;20036;-67
2024/02/16 04:14:02;;;;;;;3.17;2.15;;;;;;;;;;4913482;28;20438;-66
2024/02/16 04:16:28;;;;;;;2.50;2.08;;;;;;;;;;4913686;29;20024;-66
2024/02/16 04:18:55;;;;;;;2.70;1.85;;;;;;;;;;4913670;29;20028;-66
2024/02/16 04:21:21;;;;;;;3.40;2.08;;;;;;;;;;4913262;28;20024;-66
2024/02/16 04:23:47;;;;;;;3.13;2.10;;;;;;;;;;4913719;29;20036;-66
2024/02/16 04:26:13;;;;;;;2.78;1.70;;;;;;;;;;4913287;29;20032;-66
2024/02/16 04:28:40;;;;;;;3.85;2.08;;;;;;;;;;4905801;28;20017;-66
2024/02/16 04:31:06;;;;;;;2.25;1.60;;;;;;;;;;4913196;28;20028;-67
2024/02/16 04:33:32;;;;;;;2.20;1.83;;;;;;;;;;4915014;28;20020;-65
2024/02/16 04:35:58;;;;;;;2.30;1.35;;;;;;;;;;4915161;29;20542;-67
2024/02/16 04:38:24;;;;;;;5.80;1.67;;;;;;;;;;4914811;29;20020;-66
2024/02/16 04:40:50;;;;;;;2.03;1.65;;;;;;;;;;4913548;28;20496;-68
2024/02/16 04:43:16;;;;;;;3.72;2.00;;;;;;;;;;4914873;28;20094;-67
2024/02/16 04:45:43;;;;;;;5.60;1.40;;;;;;;;;;4913889;28;20054;-68
2024/02/16 04:48:09;;;;;;;2.80;1.80;;;;;;;;;;4915029;29;20035;-67
2024/02/16 04:50:35;;;;;;;5.18;1.90;;;;;;;;;;4914678;29;20055;-67
2024/02/16 04:53:02;;;;;;;4.90;2.35;;;;;;;;;;4914791;28;20495;-66
2024/02/16 04:55:28;;;;;;;3.45;1.70;;;;;;;;;;4914790;29;20032;-66
2024/02/16 04:57:58;;;;;;;3.13;2.00;;;;;;;;;;4914777;28;20059;-65
2024/02/16 05:00:24;;;;;;;3.90;1.55;;;;;;;;;;4914545;29;20028;-63
2024/02/16 05:02:52;;;;;;;4.60;1.20;;;;;;;;;;4914674;29;20035;-66
2024/02/16 05:05:18;;;;;;;4.30;2.00;;;;;;;;;;4914631;29;20481;-66
2024/02/16 05:07:47;;;;;;;5.78;1.58;;;;;;;;;;4914747;28;20024;-66
2024/02/16 05:10:13;;;;;;;3.90;1.98;;;;;;;;;;4914089;28;20040;-64
2024/02/16 05:12:41;;;;;;;3.40;1.58;;;;;;;;;;4914414;28;20031;-66
2024/02/16 05:15:07;;;;;;;3.28;1.65;;;;;;;;;;4914508;28;20383;-66
2024/02/16 05:17:33;;;;;;;3.85;1.98;;;;;;;;;;4914485;28;20059;-66
2024/02/16 05:19:59;;;;;;;3.55;1.83;;;;;;;;;;4914582;29;20024;-67
2024/02/16 05:22:25;;;;;;;5.13;1.63;;;;;;;;;;4914090;29;20537;-67
2024/02/16 05:24:51;;;;;;;4.60;1.90;;;;;;;;;;4914290;29;20028;-68
2024/02/16 05:27:17;;;;;;;2.58;1.50;;;;;;;;;;4914568;28;20028;-68
2024/02/16 05:29:44;;;;;;;1.70;1.10;;;;;;;;;;4914471;28;20024;-68
2024/02/16 05:32:10;;;;;;;1.75;1.20;;;;;;;;;;4914013;28;20021;-68
2024/02/16 05:34:39;;;;;;;2.75;1.45;;;;;;;;;;4914135;29;20104;-66
2024/02/16 05:37:09;;;;;;;3.40;1.13;;;;;;;;;;4914295;29;20372;-66
2024/02/16 05:39:53;;;;;;;2.35;1.20;;;;;;;;;;4914297;28;20051;-66
2024/02/16 05:42:19;;;;;;;1.55;1.13;;;;;;;;;;4913843;29;20450;-66
2024/02/16 05:44:45;;;;;;;1.65;1.15;;;;;;;;;;4914333;29;20029;-66
2024/02/16 05:47:11;;;;;;;2.22;1.17;;;;;;;;;;4914451;29;20036;-66
2024/02/16 05:49:38;;;;;;;4.00;1.67;;;;;;;;;;4915122;28;20062;-66
2024/02/16 05:52:17;;;;;;;2.45;1.20;;;;;;;;;;4914666;28;20020;-69
2024/02/16 05:54:49;;;;;;;2.53;1.52;;;;;;;;;;4908411;28;20031;-68
2024/02/16 05:57:16;;;;;;;3.90;1.10;;;;;;;;;;4915491;28;20399;-68
2024/02/16 05:59:42;;;;;;;1.67;1.45;;;;;;;;;;4915160;29;20035;-66
2024/02/16 06:02:10;;;;;;;2.60;1.35;;;;;;;;;;4914324;29;20036;-67
2024/02/16 06:04:37;;;;;;;3.70;1.40;;;;;;;;;;4913808;28;20028;-65
2024/02/16 06:07:03;;;;;;;2.65;1.35;;;;;;;;;;4913196;28;20036;-65
2024/02/16 06:09:33;;;;;;;1.88;1.35;;;;;;;;;;4913623;29;20033;-65
2024/02/16 06:12:00;;;;;;;1.80;1.65;;;;;;;;;;4913633;28;20028;-65
2024/02/16 06:14:26;;;;;;;5.63;1.77;;;;;;;;;;4913501;28;20078;-64
2024/02/16 06:16:52;;;;;;;2.83;1.83;;;;;;;;;;4913409;29;20133;-65
2024/02/16 06:19:18;;;;;;;4.32;1.92;;;;;;;;;;4913261;28;20035;-64
2024/02/16 06:21:44;;;;;;;2.78;1.83;;;;;;;;;;4913153;28;20387;-65
2024/02/16 06:24:10;;;;;;;4.88;2.00;;;;;;;;;;4913209;29;20060;-66
2024/02/16 06:26:36;;;;;;;14.82;2.28;;;;;;;;;;4913209;29;20133;-65
2024/02/16 06:29:02;;;;;;;16.90;3.25;;;;;;;;;;4912896;29;20043;-66
2024/02/16 06:31:28;;;;;;;13.93;2.65;;;;;;;;;;4912912;28;20055;-64
2024/02/16 06:33:54;;;;;;;13.60;12.20;;;;;;;;;;4913412;29;20403;-64
2024/02/16 06:36:21;;;;;;;16.70;14.75;;;;;;;;;;4913255;29;20029;-64
2024/02/16 06:38:47;;;;;;;13.70;12.27;;;;;;;;;;4913591;28;20035;-64
2024/02/16 06:41:13;;;;;;;14.43;12.95;;;;;;;;;;4913048;29;20507;-64
2024/02/16 06:43:39;;;;;;;15.95;13.75;;;;;;;;;;4913380;29;20020;-65
2024/02/16 06:46:05;;;;;;;15.10;8.73;;;;;;;;;;4913008;28;20098;-65
2024/02/16 06:48:31;;;;;;;28.58;11.27;;;;;;;;;;4913379;29;20055;-66
2024/02/16 06:50:57;;;;;;;37.63;11.10;;;;;;;;;;4913123;29;20024;-64
2024/02/16 06:53:23;;;;;;;26.40;10.73;;;;;;;;;;4912858;29;20062;-64
2024/02/16 06:55:50;;;;;;;31.42;10.30;;;;;;;;;;4913081;29;20095;-63
2024/02/16 06:58:16;;;;;;;24.40;8.32;;;;;;;;;;4912809;29;20511;-63
2024/02/16 07:00:42;;;;;;;21.70;8.65;;;;;;;;;;4912459;28;20107;-64
2024/02/16 07:03:08;;;;;;;23.23;8.38;;;;;;;;;;4918718;29;20054;-64
2024/02/16 07:05:34;;;;;;;20.98;7.15;;;;;;;;;;4922772;29;20035;-64
2024/02/16 07:08:00;;;;;;;23.88;7.15;;;;;;;;;;4932006;29;20050;-63
2024/02/16 07:10:26;;;;;;;18.20;6.90;;;;;;;;;;4932096;28;20110;-65
2024/02/16 07:12:52;;;;;;;77.68;8.88;;;;;;;;;;4930689;28;20406;-65
2024/02/16 07:15:18;;;;;;;16.90;14.63;;;;;;;;;;4932154;28;20023;-68
2024/02/16 07:17:44;;;;;;;18.27;14.50;;;;;;;;;;4930979;28;20066;-66
2024/02/16 07:20:11;;;;;;;20.80;14.40;;;;;;;;;;4930682;29;20034;-66
2024/02/16 07:22:37;;;;;;;21.10;13.70;;;;;;;;;;4931857;29;20055;-66
2024/02/16 07:25:04;;;;;;;14.93;12.45;;;;;;;;;;4932046;28;20539;-65
2024/02/16 07:27:30;;;;;;;21.05;14.98;;;;;;;;;;4932119;28;20089;-67
2024/02/16 07:29:56;;;;;;;19.20;16.50;;;;;;;;;;4931837;29;20028;-66
2024/02/16 07:32:22;;;;;;;18.90;12.93;;;;;;;;;;4931732;28;20055;-69
2024/02/16 07:34:48;;;;;;;16.95;12.55;;;;;;;;;;4931990;29;20382;-69
2024/02/16 07:37:16;;;;;;;18.17;12.75;;;;;;;;;;4931764;28;20035;-68
2024/02/16 07:39:42;;;;;;;16.77;10.85;;;;;;;;;;4930757;29;20119;-69
2024/02/16 07:42:12;;;;;;;17.60;10.43;;;;;;;;;;4917827;28;20047;-68
2024/02/16 07:44:39;;;;;;;13.77;9.93;;;;;;;;;;4924235;29;20042;-67
2024/02/16 07:47:05;;;;;;;13.43;10.07;;;;;;;;;;4927727;29;20089;-67
2024/02/16 07:49:31;;;;;;;13.43;10.00;;;;;;;;;;4926692;29;20024;-69
2024/02/16 07:52:00;;;;;;;14.38;10.00;;;;;;;;;;4931406;29;20024;-70
2024/02/16 07:54:26;;;;;;;21.30;9.25;;;;;;;;;;4988844;28;20049;-70
2024/02/16 07:56:52;;;;;;;16.42;9.45;;;;;;;;;;4991735;28;20031;-68
2024/02/16 07:59:18;;;;;;;21.83;9.60;;;;;;;;;;4921625;28;20479;-67
2024/02/16 08:01:45;;;;;;;15.10;8.68;;;;;;;;;;4957835;28;20027;-67
2024/02/16 08:04:11;;;;;;;18.25;8.95;;;;;;;;;;4916171;28;20028;-68
2024/02/16 08:06:37;;;;;;;18.75;9.52;;;;;;;;;;4912401;28;20032;-67
2024/02/16 08:09:04;;;;;;;13.73;9.15;;;;;;;;;;4912518;28;20032;-67
2024/02/16 08:11:30;;;;;;;13.65;7.45;;;;;;;;;;4912081;28;20051;-66
2024/02/16 08:14:00;;;;;;;13.23;7.38;;;;;;;;;;4912458;28;20024;-67
2024/02/16 08:16:26;;;;;;;11.90;7.05;;;;;;;;;;4924295;28;20028;-67
2024/02/16 08:18:52;;;;;;;16.45;7.30;;;;;;;;;;4931308;28;20114;-67
2024/02/16 08:21:18;;;;;;;9.43;6.95;;;;;;;;;;4930890;29;20067;-67
2024/02/16 08:23:44;;;;;;;8.38;5.55;;;;;;;;;;4931239;28;20058;-66
2024/02/16 08:26:10;;;;;;;12.02;6.47;;;;;;;;;;4930997;28;20503;-68
2024/02/16 08:28:36;;;;;;;9.98;6.10;;;;;;;;;;4931063;29;20024;-68
2024/02/16 08:31:02;;;;;;;12.57;6.38;;;;;;;;;;4929693;28;20039;-69
2024/02/16 08:33:28;;;;;;;9.32;5.97;;;;;;;;;;4911667;28;20030;-67
2024/02/16 08:35:54;;;;;;;12.15;5.70;;;;;;;;;;4911995;28;20062;-68
2024/02/16 08:38:20;;;;;;;15.35;5.78;;;;;;;;;;4912162;28;20643;-65
2024/02/16 08:40:47;;;;;;;7.97;5.20;;;;;;;;;;4911690;28;20078;-67
2024/02/16 08:43:13;;;;;;;6.50;5.05;;;;;;;;;;4911783;28;20036;-67
2024/02/16 08:45:41;;;;;;;7.55;5.30;;;;;;;;;;4911882;28;20111;-67
2024/02/16 08:48:07;;;;;;;10.52;5.15;;;;;;;;;;4911878;28;20025;-68
2024/02/16 08:50:33;;;;;;;12.20;5.00;;;;;;;;;;4911769;28;20040;-68
2024/02/16 08:52:59;;;;;;;7.15;4.53;;;;;;;;;;4915014;28;20093;-67
2024/02/16 08:55:25;;;;;;;9.75;5.30;;;;;;;;;;4915155;28;20028;-67
2024/02/16 08:57:51;;;;;;;9.93;5.22;;;;;;;;;;4913877;28;20550;-67
2024/02/16 09:00:17;;;;;;;6.82;4.90;;;;;;;;;;4914851;29;20039;-65
2024/02/16 09:02:43;;;;;;;6.43;4.82;;;;;;;;;;4914690;29;20028;-68
2024/02/16 09:05:12;;;;;;;8.65;4.93;;;;;;;;;;4914756;29;20032;-67
2024/02/16 09:07:38;;;;;;;6.18;3.88;;;;;;;;;;4914914;28;20079;-68
2024/02/16 09:10:04;;;;;;;10.60;4.85;;;;;;;;;;4914783;28;20439;-68
2024/02/16 09:12:30;;;;;;;7.35;4.75;;;;;;;;;;4914590;29;20031;-68
2024/02/16 09:14:56;;;;;;;7.20;4.00;;;;;;;;;;4915055;28;20021;-68
2024/02/16 09:17:22;;;;;;;7.72;4.60;;;;;;;;;;4914775;28;20098;-67
2024/02/16 09:19:48;;;;;;;5.47;4.70;;;;;;;;;;4914706;29;20032;-68
2024/02/16 09:22:14;;;;;;;16.20;13.35;;;;;;;;;;4914388;28;20056;-69
2024/02/16 09:24:40;;;;;;;19.65;13.98;;;;;;;;;;4914801;28;20028;-69
2024/02/16 09:27:09;;;;;;;16.65;14.65;;;;;;;;;;4914712;28;20115;-70
2024/02/16 09:29:35;;;;;;;18.60;16.40;;;;;;;;;;4914548;29;20059;-69
2024/02/16 09:32:01;;;;;;;19.05;16.98;;;;;;;;;;4914436;28;20044;-69
2024/02/16 09:34:27;;;;;;;21.80;16.73;;;;;;;;;;4914629;28;20369;-70
2024/02/16 09:36:53;;;;;;;19.88;15.88;;;;;;;;;;4914306;28;20036;-69
2024/02/16 09:39:19;;;;;;;16.50;12.35;;;;;;;;;;4914355;28;20502;-67
2024/02/16 09:41:48;;;;;;;12.40;10.27;;;;;;;;;;4914148;28;20040;-68
2024/02/16 09:44:14;;;;;;;11.48;9.77;;;;;;;;;;4914536;28;20028;-68
2024/02/16 09:46:40;;;;;;;16.90;10.77;;;;;;;;;;4914578;28;20031;-69
2024/02/16 09:49:06;;;;;;;13.80;10.80;;;;;;;;;;4914016;28;20071;-67
2024/02/16 09:51:36;;;;;;;17.05;9.65;;;;;;;;;;4913869;29;20098;-67
2024/02/16 09:54:02;;;;;;;12.23;9.52;;;;;;;;;;4914314;28;20032;-72
2024/02/16 09:56:28;;;;;;;13.52;8.90;;;;;;;;;;4914617;28;20059;-71
2024/02/16 09:58:54;;;;;;;12.07;8.25;;;;;;;;;;4913108;28;20115;-71
2024/02/16 10:01:21;;;;;;;9.10;7.90;;;;;;;;;;4914011;28;20040;-71
2024/02/16 10:03:47;;;;;;;9.90;7.32;;;;;;;;;;4913451;28;20028;-71
2024/02/16 10:06:15;;;;;;;13.45;7.78;;;;;;;;;;4914065;28;20032;-71
2024/02/16 10:08:49;;;;;;;10.45;7.55;;;;;;;;;;4914176;28;20496;-70
2024/02/16 10:11:15;;;;;;;10.95;7.20;;;;;;;;;;4913942;29;20031;-67
2024/02/16 10:13:41;;;;;;;17.25;7.43;;;;;;;;;;4912967;28;20025;-68
2024/02/16 10:16:11;;;;;;;16.98;7.70;;;;;;;;;;4914526;28;20032;-67
2024/02/16 10:18:38;;;;;;;15.98;7.15;;;;;;;;;;4914457;28;20036;-68
2024/02/16 10:21:04;;;;;;;8.57;5.90;;;;;;;;;;4914411;28;20078;-67
2024/02/16 10:23:30;;;;;;;8.98;6.05;;;;;;;;;;4915761;28;20036;-67
2024/02/16 10:25:56;;;;;;;9.88;5.88;;;;;;;;;;4918123;28;20025;-68
2024/02/16 10:28:27;;;;;;;11.45;5.90;;;;;;;;;;4920453;28;20081;-67
2024/02/16 10:30:56;;;;;;;9.25;5.90;;;;;;;;;;4919384;28;20044;-67
2024/02/16 10:33:22;;;;;;;6.68;5.30;;;;;;;;;;4916434;28;20029;-66
2024/02/16 10:35:48;;;;;;;8.35;5.47;;;;;;;;;;4913133;28;20499;-67
2024/02/16 10:38:15;;;;;;;12.68;5.95;;;;;;;;;;4912605;28;20079;-67
2024/02/16 10:40:41;;;;;;;7.90;5.10;;;;;;;;;;4912390;29;20103;-67
2024/02/16 10:43:09;;;;;;;10.02;5.43;;;;;;;;;;4936676;23;20020;-68
2024/02/16 10:45:36;;;;;;;5.65;4.80;;;;;;;;;;4951405;28;20051;-68
2024/02/16 10:48:05;;;;;;;6.18;4.43;;;;;;;;;;4951186;28;20027;-68
2024/02/16 10:50:35;;;;;;;11.00;5.03;;;;;;;;;;4951200;28;20023;-68
2024/02/16 10:53:05;;;;;;;6.25;5.35;;;;;;;;;;4951423;28;20024;-68
2024/02/16 10:55:31;;;;;;;4.85;4.40;;;;;;;;;;4951292;28;20107;-68
2024/02/16 10:57:58;;;;;;;6.40;4.75;;;;;;;;;;4951486;28;20038;-68
2024/02/16 11:00:24;;;;;;;8.00;5.35;;;;;;;;;;4951314;28;20043;-68
2024/02/16 11:02:56;;;;;;;6.30;5.07;;;;;;;;;;4951246;28;20032;-70
2024/02/16 11:05:34;;;;;;;10.30;5.13;;;;;;;;;;4951304;28;20031;-71
2024/02/16 11:08:05;;;;;;;9.48;5.53;;;;;;;;;;4951462;28;20031;-70
2024/02/16 11:10:31;;;;;;;9.80;5.17;;;;;;;;;;4951444;28;20027;-70
2024/02/16 11:13:04;;;;;;;8.73;4.82;;;;;;;;;;4951264;28;20027;-66
2024/02/16 11:15:34;;;;;;;9.70;4.68;;;;;;;;;;4951001;28;20027;-66
2024/02/16 11:18:04;;;;;;;8.80;5.30;;;;;;;;;;4951184;28;20031;-66
2024/02/16 11:20:38;;;;;;;15.35;5.20;;;;;;;;;;4950834;28;20482;-65
2024/02/16 11:23:08;;;;;;;12.75;4.82;;;;;;;;;;4969133;28;20074;-65
2024/02/16 11:25:35;;;;;;;8.20;4.80;;;;;;;;;;4970427;28;20034;-65
2024/02/16 11:28:03;;;;;;;8.80;4.78;;;;;;;;;;4970366;28;20057;-65
2024/02/16 11:30:29;;;;;;;8.98;4.90;;;;;;;;;;4969936;28;20052;-65
2024/02/16 11:32:55;;;;;;;7.82;4.40;;;;;;;;;;4970075;28;20023;-65
2024/02/16 11:35:21;;;;;;;6.35;4.35;;;;;;;;;;4970171;28;20023;-66
2024/02/16 11:37:47;;;;;;;6.57;4.88;;;;;;;;;;4970246;28;20018;-66
2024/02/16 11:40:13;;;;;;;9.32;4.40;;;;;;;;;;4961861;28;20187;-66
2024/02/16 11:42:41;;;;;;;5.88;4.22;;;;;;;;;;4950691;28;20027;-66
2024/02/16 11:45:12;;;;;;;6.00;4.03;;;;;;;;;;4950576;28;20036;-66
2024/02/16 11:47:38;;;;;;;7.15;4.43;;;;;;;;;;4950571;28;20026;-65
2024/02/16 11:50:11;;;;;;;11.32;3.95;;;;;;;;;;4950982;28;20027;-67
2024/02/16 11:52:39;;;;;;;8.70;4.32;;;;;;;;;;4950702;28;20085;-66
2024/02/16 11:55:08;;;;;;;6.28;3.70;;;;;;;;;;4950589;28;20050;-66
2024/02/16 11:57:34;;;;;;;8.95;4.45;;;;;;;;;;4950834;28;20051;-66
2024/02/16 12:00:04;;;;;;;5.75;3.83;;;;;;;;;;4950684;28;20023;-67
2024/02/16 12:02:29;;;;;;;9.98;4.10;;;;;;;;;;4950301;28;20078;-66
2024/02/16 12:04:59;;;;;;;3.92;3.22;;;;;;;;;;4948900;28;20494;-66
2024/02/16 12:07:28;;;;;;;6.25;3.53;;;;;;;;;;4950450;28;20023;-66
2024/02/16 12:09:58;;;;;;;5.63;3.55;;;;;;;;;;4950311;28;20102;-65
2024/02/16 12:12:24;;;;;;;7.13;3.70;;;;;;;;;;4950025;28;20027;-65
2024/02/16 12:14:50;;;;;;;24.90;3.63;;;;;;;;;;4950570;28;20020;-65
2024/02/16 12:17:16;;;;;;;4.90;3.60;;;;;;;;;;4950573;28;20027;-65
2024/02/16 12:19:46;;;;;;;4.55;3.70;;;;;;;;;;4950320;28;20518;-65
2024/02/16 12:22:17;;;;;;;3.33;2.90;;;;;;;;;;4950134;28;20023;-65
2024/02/16 12:24:43;;;;;;;4.93;3.85;;;;;;;;;;4950550;28;20054;-65
2024/02/16 12:27:09;;;;;;;4.88;3.05;;;;;;;;;;4952767;28;20425;-66
2024/02/16 12:29:35;;;;;;;5.75;3.88;;;;;;;;;;4953645;28;20038;-65
2024/02/16 12:32:01;;;;;;;7.38;3.47;;;;;;;;;;4952106;28;20019;-64
2024/02/16 12:34:27;;;;;;;8.13;3.78;;;;;;;;;;4953583;28;20024;-65
2024/02/16 12:36:53;;;;;;;7.18;4.28;;;;;;;;;;4952435;28;20509;-65
2024/02/16 12:39:20;;;;;;;6.53;3.22;;;;;;;;;;4953190;28;20039;-64
2024/02/16 12:41:48;;;;;;;6.63;3.33;;;;;;;;;;4953381;28;20030;-65
2024/02/16 12:44:14;;;;;;;5.18;2.97;;;;;;;;;;4953390;28;20031;-64
2024/02/16 12:46:41;;;;;;;4.75;2.58;;;;;;;;;;4952323;28;20486;-64
2024/02/16 12:49:07;;;;;;;6.78;3.55;;;;;;;;;;4953309;28;20532;-64
2024/02/16 12:51:33;;;;;;;4.70;2.60;;;;;;;;;;4953270;28;20023;-64
2024/02/16 12:54:00;;;;;;;5.75;2.72;;;;;;;;;;4951661;28;20106;-65
2024/02/16 12:56:26;;;;;;;8.40;3.17;;;;;;;;;;4951267;28;20023;-64
2024/02/16 12:58:52;;;;;;;5.32;2.80;;;;;;;;;;4953168;28;20035;-64
2024/02/16 13:01:18;;;;;;;3.58;2.65;;;;;;;;;;4952997;28;20027;-64
2024/02/16 13:03:44;;;;;;;6.90;3.20;;;;;;;;;;4953168;28;20117;-65
2024/02/16 13:06:11;;;;;;;3.72;2.90;;;;;;;;;;4953056;28;20019;-66
2024/02/16 13:08:37;;;;;;;5.10;2.67;;;;;;;;;;4953221;28;20053;-66
2024/02/16 13:11:03;;;;;;;5.53;3.20;;;;;;;;;;4952913;28;20584;-66
2024/02/16 13:13:29;;;;;;;5.90;3.03;;;;;;;;;;4953057;28;20451;-65
2024/02/16 13:15:58;;;;;;;5.35;2.80;;;;;;;;;;4953029;28;20031;-66
2024/02/16 13:18:24;;;;;;;2.95;2.75;;;;;;;;;;4953387;28;20410;-66
2024/02/16 13:20:50;;;;;;;4.15;2.40;;;;;;;;;;4952929;28;20034;-67
2024/02/16 13:23:16;;;;;;;4.20;2.60;;;;;;;;;;4952849;28;20032;-67
2024/02/16 13:25:42;;;;;;;3.47;2.60;;;;;;;;;;4953248;28;20042;-66
2024/02/16 13:28:08;;;;;;;5.90;2.90;;;;;;;;;;4952613;28;20027;-67
2024/02/16 13:30:34;;;;;;;5.68;2.72;;;;;;;;;;4952507;28;20146;-67
2024/02/16 13:33:00;;;;;;;5.18;2.88;;;;;;;;;;4952824;28;20042;-68
2024/02/16 13:35:28;;;;;;;6.70;3.60;;;;;;;;;;4952666;28;20030;-67
2024/02/16 13:37:54;;;;;;;8.00;3.22;;;;;;;;;;4951385;28;20106;-68
2024/02/16 13:40:21;;;;;;;6.75;2.97;;;;;;;;;;4951296;28;20110;-67
2024/02/16 13:42:48;;;;;;;7.60;3.25;;;;;;;;;;4952376;28;20123;-67
2024/02/16 13:45:14;;;;;;;7.78;3.78;;;;;;;;;;4952601;28;20122;-67
2024/02/16 13:47:40;;;;;;;6.10;3.30;;;;;;;;;;4952459;28;20107;-68
2024/02/16 13:50:07;;;;;;;4.93;3.75;;;;;;;;;;4952439;28;20034;-68
2024/02/16 13:52:34;;;;;;;5.68;2.88;;;;;;;;;;4952378;28;20031;-69
2024/02/16 13:55:00;;;;;;;7.18;3.15;;;;;;;;;;4952342;28;20020;-67
2024/02/16 13:57:26;;;;;;;6.47;3.13;;;;;;;;;;4951058;29;20034;-66
2024/02/16 13:59:52;;;;;;;13.15;3.22;;;;;;;;;;4952300;28;20028;-67
2024/02/16 14:02:18;;;;;;;6.47;2.97;;;;;;;;;;4969240;28;20514;-66
2024/02/16 14:04:45;;;;;;;6.65;3.40;;;;;;;;;;5014268;28;20097;-67
2024/02/16 14:07:11;;;;;;;6.88;2.90;;;;;;;;;;4981480;28;20027;-67
2024/02/16 14:09:37;;;;;;;3.83;3.20;;;;;;;;;;4970554;28;20399;-67
2024/02/16 14:12:04;;;;;;;3.55;2.75;;;;;;;;;;4988402;28;20013;-67
2024/02/16 14:14:30;;;;;;;14.25;3.63;;;;;;;;;;5053016;28;20075;-67
2024/02/16 14:16:56;;;;;;;6.07;3.13;;;;;;;;;;4978650;28;20031;-69
2024/02/16 14:19:22;;;;;;;7.22;3.00;;;;;;;;;;4971278;28;20035;-68
2024/02/16 14:21:48;;;;;;;8.48;3.30;;;;;;;;;;4970878;28;20027;-67
2024/02/16 14:24:16;;;;;;;6.45;3.40;;;;;;;;;;4970475;28;20056;-67
2024/02/16 14:26:42;;;;;;;9.43;3.58;;;;;;;;;;4970278;28;20397;-68
2024/02/16 14:29:08;;;;;;;6.82;3.33;;;;;;;;;;4971292;28;20027;-68
2024/02/16 14:31:34;;;;;;;8.63;3.65;;;;;;;;;;4969813;28;20027;-68